Time;durP1;ratioP1;P1;durP2;ratioP2;P2;SDS_P1;SDS_P2;PMS_P1;PMS_P2;Temp;Humidity;BMP_temperature;BMP_pressure;BME280_temperature;BME280_humidity;BME280_pressure;Samples;Min_cycle;Max_cycle;Signal;HPM_P1;HPM_P2
2021/09/22 00:01:02;;;;;;;;;;;;;;;11.63;63.74;101921.30;1658166;86;20118;-80
2021/09/22 00:03:29;;;;;;;;;;;;;;;11.60;64.17;101921.45;1660499;85;20122;-82
2021/09/22 00:05:56;;;;;;;;;;;;;;;11.58;64.44;101916.77;1662044;86;21168;-74
2021/09/22 00:08:22;;;;;;;;;;;;;;;11.58;64.41;101918.56;1661857;86;20165;-76
2021/09/22 00:10:50;;;;;;;;;;;;;;;11.58;64.88;101908.97;1661155;85;20146;-77
2021/09/22 00:13:18;;;;;;;;;;;;;;;11.57;65.07;101911.22;1662035;86;20125;-76
2021/09/22 00:15:47;;;;;;;;;;;;;;;11.57;65.28;101907.77;1659204;86;20142;-78
2021/09/22 00:18:15;;;;;;;;;;;;;;;11.56;65.54;101904.78;1660408;86;20098;-75
2021/09/22 00:20:44;;;;;;;;;;;;;;;11.54;65.85;101902.27;1662317;86;20425;-75
2021/09/22 00:23:10;;;;;;;;;;;;;;;11.54;66.24;101907.47;1657781;85;20226;-75
2021/09/22 00:25:38;;;;;;;;;;;;;;;11.52;66.61;101904.54;1659570;86;20098;-75
2021/09/22 00:28:07;;;;;;;;;;;;;;;11.51;66.80;101897.68;1661996;85;20523;-78
2021/09/22 00:30:35;;;;;;;;;;;;;;;11.51;66.70;101900.28;1660455;86;21556;-77
2021/09/22 00:33:03;;;;;;;;;;;;;;;11.50;66.67;101895.98;1633645;86;20102;-77
2021/09/22 00:35:29;;;;;;;;;;;;;;;11.50;66.74;101896.84;1660356;85;20158;-79
2021/09/22 00:37:56;;;;;;;;;;;;;;;11.50;66.79;101897.29;1641072;86;20137;-78
2021/09/22 00:40:22;;;;;;;;;;;;;;;11.47;66.54;101893.09;1655735;86;20122;-76
2021/09/22 00:42:49;;;;;;;;;;;;;;;11.45;66.79;101891.04;1661043;86;21156;-76
2021/09/22 00:45:21;;;;;;;;;;;;;;;11.46;66.99;101886.20;1662162;86;20115;-76
2021/09/22 00:47:45;;;;;;;;;;;;;;;11.47;67.08;101884.45;1661156;86;20145;-77
2021/09/22 00:50:14;;;;;;;;;;;;;;;11.46;66.99;101876.26;1660040;83;20732;-78
2021/09/22 00:52:42;;;;;;;;;;;;;;;11.45;66.76;101878.50;1661469;86;20145;-75
2021/09/22 00:55:11;;;;;;;;;;;;;;;11.45;66.71;101874.59;1662216;85;20129;-76
2021/09/22 00:57:42;;;;;;;;;;;;;;;11.47;66.49;101876.65;1661289;85;20143;-77
2021/09/22 01:00:11;;;;;;;;;;;;;;;11.48;66.86;101870.09;1629609;86;20432;-77
2021/09/22 01:02:37;;;;;;;;;;;;;;;11.50;66.91;101864.34;1613136;87;20119;-77
2021/09/22 01:05:04;;;;;;;;;;;;;;;11.52;67.09;101857.30;1648652;86;20131;-77
2021/09/22 01:07:32;;;;;;;;;;;;;;;11.55;67.01;101857.63;1642525;85;20135;-77
2021/09/22 01:09:59;;;;;;;;;;;;;;;11.56;67.11;101860.13;1644102;87;20182;-78
2021/09/22 01:12:27;;;;;;;;;;;;;;;11.58;66.86;101850.97;1641204;87;20474;-78
2021/09/22 01:14:55;;;;;;;;;;;;;;;11.59;66.70;101850.87;1642966;87;20190;-78
2021/09/22 01:17:25;;;;;;;;;;;;;;;11.60;66.51;101852.56;1643516;86;20473;-77
2021/09/22 01:19:57;;;;;;;;;;;;;;;11.61;66.49;101847.72;1664404;85;20145;-77
2021/09/22 01:22:25;;;;;;;;;;;;;;;11.61;66.38;101838.62;1662372;86;20483;-79
2021/09/22 01:24:54;;;;;;;;;;;;;;;11.65;66.54;101836.70;1660839;84;20118;-77
2021/09/22 01:27:22;;;;;;;;;;;;;;;11.65;66.66;101838.85;1641301;86;20102;-77
2021/09/22 01:29:49;;;;;;;;;;;;;;;11.65;66.58;101834.95;1660445;85;20466;-77
2021/09/22 01:32:16;;;;;;;;;;;;;;;11.64;66.53;101830.69;1662247;86;21146;-77
2021/09/22 01:34:44;;;;;;;;;;;;;;;11.64;66.64;101829.84;1645247;86;20799;-78
2021/09/22 01:37:12;;;;;;;;;;;;;;;11.63;66.54;101831.60;1661748;84;20101;-77
2021/09/22 01:39:58;;;;;;;;;;;;;;;11.59;66.59;101822.72;1661414;86;20628;-77
2021/09/22 01:42:28;;;;;;;;;;;;;;;11.56;66.93;101823.73;1662971;85;20117;-77
2021/09/22 01:44:56;;;;;;;;;;;;;;;11.56;67.35;101821.59;1661939;86;21152;-77
2021/09/22 01:47:32;;;;;;;;;;;;;;;11.55;67.74;101820.73;1662702;86;20141;-75
2021/09/22 01:50:05;;;;;;;;;;;;;;;11.54;67.59;101821.68;1657930;85;20118;-76
2021/09/22 01:52:34;;;;;;;;;;;;;;;11.55;67.76;101816.03;1658492;85;20153;-75
2021/09/22 01:55:04;;;;;;;;;;;;;;;11.56;68.80;101813.33;1655545;86;20146;-76
2021/09/22 01:57:31;;;;;;;;;;;;;;;11.58;68.85;101814.56;1662071;86;21159;-76
2021/09/22 01:59:59;;;;;;;;;;;;;;;11.60;67.93;101813.56;1662162;86;20456;-75
2021/09/22 02:02:31;;;;;;;;;;;;;;;11.60;67.52;101807.06;1657255;86;20122;-77
2021/09/22 02:05:18;;;;;;;;;;;;;;;11.60;67.26;101812.72;1634449;87;20610;-76
2021/09/22 02:07:48;;;;;;;;;;;;;;;11.60;67.77;101811.41;1630902;87;20177;-75
2021/09/22 02:10:16;;;;;;;;;;;;;;;11.57;68.50;101811.12;1624888;86;21827;-76
2021/09/22 02:12:46;;;;;;;;;;;;;;;11.58;69.39;101817.17;1641153;87;20201;-76
2021/09/22 02:15:13;;;;;;;;;;;;;;;11.57;69.39;101814.17;1642982;87;20158;-76
2021/09/22 02:17:43;;;;;;;;;;;;;;;11.55;70.11;101816.03;1644775;86;20143;-76
2021/09/22 02:20:12;;;;;;;;;;;;;;;11.52;70.52;101813.10;1648243;86;20146;-76
2021/09/22 02:22:45;;;;;;;;;;;;;;;11.50;71.13;101818.84;1633713;86;20231;-76
2021/09/22 02:25:14;;;;;;;;;;;;;;;11.43;71.33;101817.48;1640664;87;20150;-76
2021/09/22 02:27:43;;;;;;;;;;;;;;;11.36;71.73;101815.29;1642363;86;20425;-77
2021/09/22 02:30:14;;;;;;;;;;;;;;;11.29;72.54;101813.46;1640988;87;20099;-76
2021/09/22 02:32:41;;;;;;;;;;;;;;;11.26;73.11;101814.91;1642377;87;20106;-76
2021/09/22 02:35:08;;;;;;;;;;;;;;;11.22;73.16;101815.98;1631502;87;21207;-76
2021/09/22 02:37:38;;;;;;;;;;;;;;;11.21;72.61;101818.64;1637982;87;20172;-76
2021/09/22 02:40:12;;;;;;;;;;;;;;;11.20;71.60;101824.29;1628687;87;20180;-77
2021/09/22 02:42:40;;;;;;;;;;;;;;;11.19;71.64;101829.58;1640824;87;20201;-76
2021/09/22 02:45:07;;;;;;;;;;;;;;;11.17;71.16;101828.34;1641160;87;20449;-77
2021/09/22 02:47:34;;;;;;;;;;;;;;;11.14;71.17;101827.20;1640965;87;21177;-77
2021/09/22 02:50:01;;;;;;;;;;;;;;;11.10;71.04;101821.80;1640989;86;20139;-77
2021/09/22 02:52:29;;;;;;;;;;;;;;;11.07;70.89;101823.25;1640799;86;20107;-77
2021/09/22 02:54:59;;;;;;;;;;;;;;;11.04;70.83;101824.21;1638179;86;20210;-77
2021/09/22 02:57:27;;;;;;;;;;;;;;;11.01;70.58;101819.17;1646800;87;20452;-77
2021/09/22 02:59:54;;;;;;;;;;;;;;;10.99;70.65;101817.57;1640494;87;21160;-75
2021/09/22 03:02:22;;;;;;;;;;;;;;;10.92;70.86;101813.59;1641016;86;20142;-77
2021/09/22 03:04:50;;;;;;;;;;;;;;;10.85;71.52;101814.34;1641057;87;20433;-77
2021/09/22 03:07:18;;;;;;;;;;;;;;;10.82;72.17;101813.65;1641121;87;20183;-77
2021/09/22 03:09:46;;;;;;;;;;;;;;;10.77;72.14;101810.00;1675006;85;20506;-77
2021/09/22 03:12:13;;;;;;;;;;;;;;;10.73;72.31;101812.34;1675732;85;21164;-76
2021/09/22 03:14:41;;;;;;;;;;;;;;;10.70;72.97;101811.20;1663362;85;20098;-77
2021/09/22 03:17:09;;;;;;;;;;;;;;;10.68;74.00;101808.30;1662778;85;20182;-77
2021/09/22 03:19:38;;;;;;;;;;;;;;;10.66;74.05;101808.36;1662533;86;20248;-75
2021/09/22 03:22:04;;;;;;;;;;;;;;;10.64;74.62;101802.41;1659637;85;20197;-76
2021/09/22 03:24:51;;;;;;;;;;;;;;;10.60;74.77;101804.31;1659690;85;20574;-76
2021/09/22 03:27:19;;;;;;;;;;;;;;;10.53;74.90;101799.02;1638006;86;20471;-76
2021/09/22 03:29:47;;;;;;;;;;;;;;;10.50;74.97;101800.92;1660670;85;20149;-75
2021/09/22 03:32:14;;;;;;;;;;;;;;;10.46;75.64;101798.95;1661917;85;20131;-75
2021/09/22 03:34:40;;;;;;;;;;;;;;;10.42;76.12;101799.16;1660380;85;20265;-77
2021/09/22 03:37:08;;;;;;;;;;;;;;;10.38;76.29;101795.87;1663294;85;20153;-77
2021/09/22 03:39:35;;;;;;;;;;;;;;;10.33;76.57;101792.66;1661506;86;20122;-77
2021/09/22 03:42:03;;;;;;;;;;;;;;;10.32;76.86;101796.61;1662842;85;20185;-76
2021/09/22 03:44:30;;;;;;;;;;;;;;;10.30;76.78;101793.25;1640911;86;20452;-77
2021/09/22 03:46:58;;;;;;;;;;;;;;;10.27;76.50;101789.51;1659427;86;20133;-77
2021/09/22 03:49:25;;;;;;;;;;;;;;;10.25;76.55;101791.31;1639110;86;21807;-78
2021/09/22 03:51:53;;;;;;;;;;;;;;;10.23;76.12;101787.52;1628538;86;38413;-78
2021/09/22 03:54:21;;;;;;;;;;;;;;;10.20;75.95;101784.22;1638697;86;20154;-78
2021/09/22 03:56:50;;;;;;;;;;;;;;;10.16;75.94;101788.70;1662329;86;20166;-78
2021/09/22 03:59:18;;;;;;;;;;;;;;;10.15;76.05;101784.41;1662030;86;20162;-77
2021/09/22 04:01:45;;;;;;;;;;;;;;;10.17;76.54;101792.14;1659046;86;21134;-77
2021/09/22 04:04:12;;;;;;;;;;;;;;;10.20;76.94;101786.36;1660192;86;20118;-78
2021/09/22 04:06:41;;;;;;;;;;;;;;;10.23;76.21;101790.55;1658343;86;20144;-79
2021/09/22 04:09:10;;;;;;;;;;;;;;;10.27;75.95;101786.91;1661697;85;20150;-76
2021/09/22 04:11:40;;;;;;;;;;;;;;;10.27;76.00;101782.58;1659408;85;20145;-77
2021/09/22 04:14:06;;;;;;;;;;;;;;;10.27;76.10;101786.47;1661204;85;21166;-80
2021/09/22 04:16:34;;;;;;;;;;;;;;;10.25;76.28;101779.64;1660915;86;20472;-76
2021/09/22 04:19:03;;;;;;;;;;;;;;;10.22;76.54;101782.37;1638456;86;20153;-78
2021/09/22 04:21:31;;;;;;;;;;;;;;;10.23;76.76;101774.99;1661148;85;20165;-79
2021/09/22 04:23:58;;;;;;;;;;;;;;;10.25;76.85;101771.86;1659946;86;20082;-77
2021/09/22 04:26:24;;;;;;;;;;;;;;;10.26;76.85;101775.69;1638570;84;21225;-77
2021/09/22 04:28:54;;;;;;;;;;;;;;;10.28;76.88;101771.27;1661370;86;20421;-76
2021/09/22 04:31:42;;;;;;;;;;;;;;;10.30;76.91;101773.34;1608907;88;20551;-78
2021/09/22 04:34:27;;;;;;;;;;;;;;;10.33;76.98;101770.61;1603226;89;20179;-75
2021/09/22 04:37:13;;;;;;;;;;;;;;;10.37;77.22;101771.30;1636300;86;20121;-77
2021/09/22 04:39:58;;;;;;;;;;;;;;;10.40;77.48;101770.67;1656676;85;21185;-78
2021/09/22 04:42:43;;;;;;;;;;;;;;;10.41;77.59;101764.58;1661842;86;20118;-78
2021/09/22 04:45:28;;;;;;;;;;;;;;;10.43;77.90;101767.93;1661989;86;20164;-77
2021/09/22 04:48:14;;;;;;;;;;;;;;;10.40;78.00;101762.89;1660002;86;20134;-78
2021/09/22 04:50:59;;;;;;;;;;;;;;;10.31;78.33;101758.14;1659874;85;20094;-77
2021/09/22 04:53:45;;;;;;;;;;;;;;;10.24;78.91;101757.23;1661142;86;21188;-77
2021/09/22 04:56:31;;;;;;;;;;;;;;;10.26;79.75;101759.28;1658181;85;20596;-78
2021/09/22 04:59:18;;;;;;;;;;;;;;;10.29;80.32;101750.05;1658003;85;20173;-77
2021/09/22 05:02:03;;;;;;;;;;;;;;;10.32;80.92;101750.75;1663575;86;20089;-77
2021/09/22 05:04:48;;;;;;;;;;;;;;;10.38;81.28;101753.05;1655290;86;20647;-76
2021/09/22 05:07:35;;;;;;;;;;;;;;;10.43;81.51;101759.33;1660222;85;20097;-78
2021/09/22 05:10:20;;;;;;;;;;;;;;;10.46;81.46;101748.80;1662096;86;20086;-76
2021/09/22 05:13:08;;;;;;;;;;;;;;;10.53;81.58;101750.16;1590594;89;20214;-78
2021/09/22 05:15:53;;;;;;;;;;;;;;;10.62;81.02;101747.96;1598965;89;20551;-77
2021/09/22 05:18:38;;;;;;;;;;;;;;;10.73;80.79;101742.70;1640750;86;20117;-78
2021/09/22 05:21:23;;;;;;;;;;;;;;;10.82;80.76;101750.03;1656495;85;21121;-77
2021/09/22 05:24:08;;;;;;;;;;;;;;;10.89;80.44;101737.13;1660346;85;20129;-76
2021/09/22 05:26:55;;;;;;;;;;;;;;;10.98;79.92;101740.56;1661810;86;20121;-78
2021/09/22 05:29:41;;;;;;;;;;;;;;;11.06;78.36;101750.97;1661161;86;20102;-78
2021/09/22 05:32:26;;;;;;;;;;;;;;;11.13;77.13;101751.50;1659374;85;20193;-77
2021/09/22 05:35:11;;;;;;;;;;;;;;;11.22;76.95;101748.87;1662390;86;21107;-77
2021/09/22 05:37:59;;;;;;;;;;;;;;;11.31;76.34;101758.34;1662102;85;20208;-77
2021/09/22 05:40:43;;;;;;;;;;;;;;;11.40;75.28;101750.52;1663195;85;20102;-80
2021/09/22 05:43:28;;;;;;;;;;;;;;;11.48;74.57;101755.72;1663124;86;20575;-81
2021/09/22 05:46:13;;;;;;;;;;;;;;;11.54;74.24;101753.25;1659956;85;20146;-79
2021/09/22 05:48:59;;;;;;;;;;;;;;;11.63;74.07;101756.20;1660755;86;21130;-77
2021/09/22 05:51:46;;;;;;;;;;;;;;;11.75;73.74;101757.33;1660790;86;20533;-78
2021/09/22 05:54:31;;;;;;;;;;;;;;;11.89;73.54;101752.24;1661746;85;20082;-78
2021/09/22 05:57:17;;;;;;;;;;;;;;;12.06;73.25;101752.14;1661125;85;20090;-76
2021/09/22 06:00:07;;;;;;;;;;;;;;;12.23;71.77;101758.19;1661950;86;20174;-79
2021/09/22 06:02:41;;;;;;;;;;;;;;;12.34;69.68;101750.63;1662064;86;21166;-77
2021/09/22 06:05:26;;;;;;;;;;;;;;;12.40;68.88;101757.64;1657565;85;20336;-78
2021/09/22 06:08:01;;;;;;;;;;;;;;;12.48;67.57;101757.19;1650142;86;20138;-81
2021/09/22 06:10:35;;;;;;;;;;;;;;;12.52;65.92;101756.94;1616980;87;20408;-78
2021/09/22 06:13:06;;;;;;;;;;;;;;;12.55;65.51;101754.62;1654031;86;20106;-78
2021/09/22 06:15:35;;;;;;;;;;;;;;;12.58;65.81;101750.53;1658148;86;21986;-78
2021/09/22 06:18:06;;;;;;;;;;;;;;;12.62;65.66;101750.75;1608378;86;20270;-79
2021/09/22 06:20:33;;;;;;;;;;;;;;;12.66;65.29;101741.84;1610465;88;20222;-76
2021/09/22 06:23:01;;;;;;;;;;;;;;;12.71;64.79;101733.28;1617107;86;20177;-85
2021/09/22 06:25:28;;;;;;;;;;;;;;;12.74;64.04;101733.95;1645980;86;20235;-82
2021/09/22 06:27:56;;;;;;;;;;;;;;;12.78;63.72;101741.58;1628233;87;21163;-77
2021/09/22 06:30:23;;;;;;;;;;;;;;;12.81;63.32;101727.08;1621775;87;20226;-81
2021/09/22 06:32:52;;;;;;;;;;;;;;;12.82;63.21;101728.30;1618537;86;20202;-75
2021/09/22 06:35:32;;;;;;;;;;;;;;;12.85;63.02;101726.83;1597952;87;20198;-81
2021/09/22 06:38:05;;;;;;;;;;;;;;;12.89;62.27;101730.09;1612246;88;20255;-79
2021/09/22 06:40:35;;;;;;;;;;;;;;;12.90;62.29;101735.19;1618468;88;21226;-79
2021/09/22 06:43:06;;;;;;;;;;;;;;;12.98;63.14;101733.45;1626207;87;20248;-79
2021/09/22 06:45:33;;;;;;;;;;;;;;;13.09;61.37;101740.19;1612687;86;20281;-78
2021/09/22 06:48:01;;;;;;;;;;;;;;;13.13;60.35;101737.78;1626459;87;20258;-84
2021/09/22 06:50:29;;;;;;;;;;;;;;;13.16;60.10;101734.53;1612238;86;20475;-82
2021/09/22 06:52:56;;;;;;;;;;;;;;;13.22;59.54;101724.20;1645636;86;21998;-78
2021/09/22 06:55:31;;;;;;;;;;;;;;;13.34;60.40;101721.33;1633773;85;20201;-76
2021/09/22 06:57:58;;;;;;;;;;;;;;;13.48;61.54;101717.41;1674878;85;20267;-86
2021/09/22 07:00:31;;;;;;;;;;;;;;;13.59;61.95;101724.11;1611514;88;20534;-80
2021/09/22 07:02:58;;;;;;;;;;;;;;;13.68;60.52;101723.08;1601057;88;20190;-78
2021/09/22 07:05:25;;;;;;;;;;;;;;;13.77;58.66;101727.72;1581285;88;21522;-78
2021/09/22 07:07:53;;;;;;;;;;;;;;;13.81;58.81;101732.28;1584033;88;20068;-76
2021/09/22 07:10:20;;;;;;;;;;;;;;;13.90;59.83;101730.40;1615369;86;20230;-77
2021/09/22 07:12:49;;;;;;;;;;;;;;;13.98;60.51;101731.20;1637129;86;20223;-77
2021/09/22 07:15:16;;;;;;;;;;;;;;;14.04;59.51;101735.56;1620508;86;20218;-82
2021/09/22 07:17:42;;;;;;;;;;;;;;;14.02;60.46;101741.36;1614565;86;21107;-78
2021/09/22 07:20:10;;;;;;;;;;;;;;;13.97;61.35;101743.44;1610129;86;20235;-78
2021/09/22 07:22:45;;;;;;;;;;;;;;;13.89;62.02;101740.45;1618561;88;20249;-78
2021/09/22 07:25:20;;;;;;;;;;;;;;;13.89;62.77;101734.39;1600661;86;20250;-85
2021/09/22 07:27:55;;;;;;;;;;;;;;;13.87;62.31;101737.58;1596493;89;20217;-82
2021/09/22 07:30:31;;;;;;;;;;;;;;;13.84;62.03;101733.39;1605429;88;20829;-76
2021/09/22 07:33:00;;;;;;;;;;;;;;;13.83;61.42;101730.87;1620067;87;20200;-73
2021/09/22 07:35:36;;;;;;;;;;;;;;;13.76;61.04;101729.95;1631302;88;20100;-83
2021/09/22 07:38:11;;;;;;;;;;;;;;;13.75;61.58;101730.06;1629403;86;20191;-80
2021/09/22 07:40:38;;;;;;;;;;;;;;;13.77;61.89;101725.58;1613901;86;20199;-76
2021/09/22 07:43:08;;;;;;;;;;;;;;;13.81;61.10;101720.55;1617103;87;23319;-80
2021/09/22 07:45:38;;;;;;;;;;;;;;;13.89;59.39;101713.52;1631326;86;20217;-79
2021/09/22 07:48:07;;;;;;;;;;;;;;;14.03;59.65;101715.64;1625760;87;20271;-76
2021/09/22 07:50:37;;;;;;;;;;;;;;;14.20;59.63;101706.25;1630937;86;20203;-78
2021/09/22 07:53:11;;;;;;;;;;;;;;;14.34;57.82;101702.78;1630807;87;20222;-82
2021/09/22 07:55:38;;;;;;;;;;;;;;;14.37;57.40;101705.66;1615399;87;20529;-83
2021/09/22 07:58:05;;;;;;;;;;;;;;;14.37;57.29;101703.05;1608904;87;20318;-77
2021/09/22 08:00:32;;;;;;;;;;;;;;;14.41;56.61;101705.37;1664183;85;20258;-81
2021/09/22 08:03:01;;;;;;;;;;;;;;;14.39;51.86;101703.80;1593863;89;20414;-76
2021/09/22 08:05:32;;;;;;;;;;;;;;;14.36;53.22;101705.31;1608348;88;20223;-78
2021/09/22 08:08:01;;;;;;;;;;;;;;;14.43;53.93;101704.78;1592683;90;21175;-80
2021/09/22 08:10:39;;;;;;;;;;;;;;;14.55;54.10;101701.36;1648564;85;20466;-83
2021/09/22 08:13:00;;;;;;;;;;;;;;;14.67;54.02;101702.34;1622813;88;20187;-80
2021/09/22 08:15:29;;;;;;;;;;;;;;;14.71;53.93;101690.27;1620712;87;20185;-76
2021/09/22 08:18:02;;;;;;;;;;;;;;;14.77;52.58;101687.73;1619172;88;20216;-84
2021/09/22 08:20:29;;;;;;;;;;;;;;;14.66;52.69;101679.30;1631329;86;22570;-81
2021/09/22 08:22:56;;;;;;;;;;;;;;;14.67;53.36;101673.61;1661409;85;20229;-77
2021/09/22 08:25:32;;;;;;;;;;;;;;;14.77;53.77;101662.91;1642453;86;20247;-84
2021/09/22 08:28:23;;;;;;;;;;;;;;;14.85;52.17;101657.98;1648263;86;22037;-86
2021/09/22 08:30:50;;;;;;;;;;;;;;;14.82;52.57;101658.20;1637742;85;20126;-79
2021/09/22 08:33:19;;;;;;;;;;;;;;;14.87;53.21;101650.06;1648254;87;21158;-81
2021/09/22 08:35:48;;;;;;;;;;;;;;;14.92;53.21;101651.41;1621217;86;20254;-81
2021/09/22 08:38:18;;;;;;;;;;;;;;;15.01;52.42;101655.16;1618549;88;20203;-82
2021/09/22 08:40:47;;;;;;;;;;;;;;;15.02;53.04;101653.76;1619794;86;20116;-78
2021/09/22 08:43:19;;;;;;;;;;;;;;;15.02;53.34;101649.84;1621240;87;20616;-84
2021/09/22 08:45:46;;;;;;;;;;;;;;;15.11;52.82;101658.81;1597672;88;21341;-85
2021/09/22 08:48:14;;;;;;;;;;;;;;;15.04;53.08;101660.17;1626372;86;20179;-77
2021/09/22 08:50:48;;;;;;;;;;;;;;;15.09;53.43;101656.80;1595444;87;20230;-81
2021/09/22 08:53:15;;;;;;;;;;;;;;;15.09;52.76;101653.68;1601705;88;20370;-78
2021/09/22 08:55:45;;;;;;;;;;;;;;;15.06;53.01;101649.97;1576609;89;20187;-79
2021/09/22 08:58:14;;;;;;;;;;;;;;;15.11;52.11;101650.97;1599064;89;20227;-81
2021/09/22 09:00:43;;;;;;;;;;;;;;;14.98;52.48;101642.30;1617869;88;20195;-81
2021/09/22 09:03:31;;;;;;;;;;;;;;;14.94;52.60;101631.22;1600106;89;20266;-82
2021/09/22 09:06:20;;;;;;;;;;;;;;;14.92;53.60;101634.88;1614111;88;20296;-78
2021/09/22 09:08:49;;;;;;;;;;;;;;;15.00;53.60;101635.18;1649195;85;20209;-79
2021/09/22 09:11:18;;;;;;;;;;;;;;;15.04;53.73;101626.19;1644821;86;21010;-76
2021/09/22 09:13:55;;;;;;;;;;;;;;;15.03;52.85;101627.16;1625223;86;20112;-84
2021/09/22 09:16:23;;;;;;;;;;;;;;;15.01;52.68;101627.25;1619034;87;20367;-77
2021/09/22 09:18:54;;;;;;;;;;;;;;;14.90;52.35;101633.67;1619364;87;20184;-80
2021/09/22 09:21:22;;;;;;;;;;;;;;;14.79;52.29;101628.36;1623605;86;20246;-81
2021/09/22 09:23:53;;;;;;;;;;;;;;;14.74;52.61;101633.87;1602634;86;23098;-83
2021/09/22 09:26:23;;;;;;;;;;;;;;;14.70;53.42;101629.83;1605100;88;20167;-78
2021/09/22 09:28:55;;;;;;;;;;;;;;;14.75;53.78;101626.42;1587639;88;20169;-82
2021/09/22 09:31:26;;;;;;;;;;;;;;;14.95;54.37;101617.69;1592107;89;20214;-82
2021/09/22 09:34:03;;;;;;;;;;;;;;;15.17;53.09;101620.48;1607264;87;20326;-78
2021/09/22 09:36:32;;;;;;;;;;;;;;;15.41;51.35;101627.08;1664411;85;22082;-81
2021/09/22 09:39:11;;;;;;;;;;;;;;;15.66;50.99;101617.41;1637518;86;20215;-82
2021/09/22 09:41:50;;;;;;;;;;;;;;;15.75;50.75;101625.06;1660905;85;20221;-78
2021/09/22 09:44:23;;;;;;;;;;;;;;;15.91;50.43;101617.77;1665580;84;20259;-80
2021/09/22 09:47:07;;;;;;;;;;;;;;;16.04;49.57;101603.30;1684943;85;20219;-86
2021/09/22 09:49:48;;;;;;;;;;;;;;;16.36;49.48;101604.36;1684384;85;20191;-80
2021/09/22 09:52:22;;;;;;;;;;;;;;;16.77;48.99;101599.92;1678833;85;20221;-79
2021/09/22 09:54:52;;;;;;;;;;;;;;;17.01;48.06;101598.52;1686200;83;20167;-78
2021/09/22 09:57:20;;;;;;;;;;;;;;;17.14;48.08;101590.86;1672687;83;20137;-82
2021/09/22 09:59:51;;;;;;;;;;;;;;;17.19;47.17;101583.95;1661528;86;20146;-80
2021/09/22 10:02:42;;;;;;;;;;;;;;;17.45;46.32;101585.34;1663557;86;22045;-76
2021/09/22 10:05:09;;;;;;;;;;;;;;;17.80;45.99;101583.83;1656379;86;20630;-79
2021/09/22 10:07:36;;;;;;;;;;;;;;;18.10;44.86;101590.48;1659873;86;20214;-86
2021/09/22 10:10:07;;;;;;;;;;;;;;;18.04;44.51;101583.12;1634831;86;20275;-79
2021/09/22 10:12:36;;;;;;;;;;;;;;;17.88;45.06;101586.17;1657358;86;20235;-76
2021/09/22 10:15:09;;;;;;;;;;;;;;;17.80;44.01;101581.20;1657514;86;20324;-79
2021/09/22 10:17:35;;;;;;;;;;;;;;;17.37;44.71;101592.50;1655299;86;20197;-79
2021/09/22 10:20:05;;;;;;;;;;;;;;;17.04;44.75;101593.84;1659625;86;20604;-79
2021/09/22 10:22:33;;;;;;;;;;;;;;;16.97;45.62;101590.52;1660474;86;20673;-79
2021/09/22 10:25:00;;;;;;;;;;;;;;;16.89;45.43;101586.70;1658130;86;20229;-76
2021/09/22 10:27:27;;;;;;;;;;;;;;;16.67;45.59;101588.00;1634965;86;21285;-76
2021/09/22 10:30:02;;;;;;;;;;;;;;;16.48;46.09;101589.48;1659652;86;20177;-80
2021/09/22 10:32:45;;;;;;;;;;;;;;;16.35;46.65;101593.51;1661139;84;20514;-81
2021/09/22 10:35:28;;;;;;;;;;;;;;;16.29;47.00;101593.50;1640087;85;20535;-80
2021/09/22 10:38:00;;;;;;;;;;;;;;;16.27;45.78;101588.03;1667000;85;20256;-77
2021/09/22 10:40:37;;;;;;;;;;;;;;;16.25;46.15;101593.37;1658505;85;21935;-79
2021/09/22 10:43:18;;;;;;;;;;;;;;;16.26;46.31;101593.73;1633903;86;20132;-76
2021/09/22 10:46:11;;;;;;;;;;;;;;;16.18;47.55;101593.93;1645512;85;20233;-84
2021/09/22 10:48:57;;;;;;;;;;;;;;;16.18;47.47;101595.23;1642927;86;20202;-80
2021/09/22 10:51:46;;;;;;;;;;;;;;;16.23;47.32;101592.66;1656002;85;20523;-81
2021/09/22 10:54:19;;;;;;;;;;;;;;;16.19;47.78;101582.52;1659204;86;21172;-78
2021/09/22 10:56:49;;;;;;;;;;;;;;;16.19;47.85;101582.52;1660321;86;20177;-81
2021/09/22 10:59:31;;;;;;;;;;;;;;;16.13;46.98;101575.12;1660893;86;20172;-84
2021/09/22 11:01:59;;;;;;;;;;;;;;;16.10;47.58;101572.73;1650056;86;20222;-81
2021/09/22 11:04:26;;;;;;;;;;;;;;;16.25;47.00;101575.03;1659198;86;20559;-76
2021/09/22 11:06:55;;;;;;;;;;;;;;;16.53;47.12;101562.48;1656768;84;21240;-85
2021/09/22 11:09:29;;;;;;;;;;;;;;;16.90;44.90;101552.14;1659837;86;20164;-86
2021/09/22 11:12:03;;;;;;;;;;;;;;;16.84;45.52;101548.23;1660510;86;20212;-86
2021/09/22 11:14:39;;;;;;;;;;;;;;;16.89;45.11;101549.16;1659589;86;20733;-75
2021/09/22 11:17:19;;;;;;;;;;;;;;;16.96;44.36;101538.55;1635053;86;20201;-81
2021/09/22 11:19:54;;;;;;;;;;;;;;;16.88;43.63;101526.50;1659376;86;20133;-79
2021/09/22 11:22:25;;;;;;;;;;;;;;;16.90;44.36;101525.93;1667665;85;20512;-80
2021/09/22 11:24:55;;;;;;;;;;;;;;;17.01;44.91;101518.03;1659500;84;20526;-83
2021/09/22 11:27:24;;;;;;;;;;;;;;;16.90;42.95;101515.44;1655521;85;20194;-78
2021/09/22 11:29:58;;;;;;;;;;;;;;;16.59;42.86;101505.19;1666722;84;20204;-76
2021/09/22 11:32:32;;;;;;;;;;;;;;;16.40;43.64;101502.30;1665477;86;21993;-80
2021/09/22 11:35:03;;;;;;;;;;;;;;;16.37;44.27;101509.92;1660491;86;20430;-82
2021/09/22 11:37:52;;;;;;;;;;;;;;;16.35;45.01;101514.45;1660814;86;20449;-83
2021/09/22 11:40:23;;;;;;;;;;;;;;;16.39;45.57;101507.20;1660297;86;20497;-76
2021/09/22 11:43:09;;;;;;;;;;;;;;;16.58;46.16;101510.57;1603084;88;20263;-77
2021/09/22 11:45:47;;;;;;;;;;;;;;;16.69;45.26;101514.02;1611925;88;21155;-78
2021/09/22 11:48:16;;;;;;;;;;;;;;;16.67;44.84;101515.09;1630565;86;20206;-86
2021/09/22 11:50:44;;;;;;;;;;;;;;;16.67;45.38;101503.30;1632557;87;20276;-78
2021/09/22 11:53:15;;;;;;;;;;;;;;;16.66;44.47;101504.23;1634329;86;20207;-78
2021/09/22 11:55:45;;;;;;;;;;;;;;;16.66;44.38;101491.98;1629027;86;20228;-81
2021/09/22 11:58:19;;;;;;;;;;;;;;;16.96;43.72;101497.07;1632962;88;21081;-78
2021/09/22 12:00:51;;;;;;;;;;;;;;;17.37;42.86;101496.73;1641808;85;20445;-84
2021/09/22 12:03:20;;;;;;;;;;;;;;;17.32;43.60;101495.45;1638286;86;20116;-77
2021/09/22 12:05:48;;;;;;;;;;;;;;;17.33;44.40;101497.93;1650931;87;20169;-80
2021/09/22 12:08:14;;;;;;;;;;;;;;;17.82;42.84;101496.09;1644774;86;20101;-81
2021/09/22 12:10:43;;;;;;;;;;;;;;;18.05;42.43;101489.40;1655008;85;20214;-81
2021/09/22 12:13:10;;;;;;;;;;;;;;;18.04;41.56;101495.13;1651466;87;20182;-75
2021/09/22 12:15:36;;;;;;;;;;;;;;;17.78;42.51;101491.21;1654151;85;20236;-80
2021/09/22 12:18:04;;;;;;;;;;;;;;;17.59;43.26;101482.72;1656282;85;20534;-81
2021/09/22 12:20:33;;;;;;;;;;;;;;;17.41;42.50;101484.20;1653731;85;20246;-82
2021/09/22 12:23:04;;;;;;;;;;;;;;;17.44;42.46;101474.77;1634055;86;21228;-81
2021/09/22 12:25:31;;;;;;;;;;;;;;;17.47;41.85;101474.52;1657330;86;20134;-81
2021/09/22 12:28:00;;;;;;;;;;;;;;;17.26;42.12;101471.83;1653194;85;20094;-83
2021/09/22 12:30:34;;;;;;;;;;;;;;;17.00;41.96;101474.91;1660678;86;20249;-79
2021/09/22 12:33:07;;;;;;;;;;;;;;;16.82;42.25;101463.60;1661950;85;20193;-79
2021/09/22 12:35:43;;;;;;;;;;;;;;;16.81;43.13;101459.34;1654078;86;21166;-77
2021/09/22 12:38:15;;;;;;;;;;;;;;;16.92;43.30;101457.16;1664049;84;20082;-76
2021/09/22 12:40:44;;;;;;;;;;;;;;;16.89;42.41;101452.16;1651256;85;20191;-80
2021/09/22 12:43:26;;;;;;;;;;;;;;;16.88;42.94;101450.00;1635278;87;20096;-79
2021/09/22 12:46:28;;;;;;;;;;;;;;;16.93;43.86;101457.52;1635580;86;20095;-79
2021/09/22 12:48:57;;;;;;;;;;;;;;;16.91;43.98;101458.94;1672763;83;22028;-83
2021/09/22 12:51:29;;;;;;;;;;;;;;;16.91;43.39;101458.94;1696745;84;20190;-74
2021/09/22 12:54:01;;;;;;;;;;;;;;;16.81;43.45;101458.03;1695494;83;20060;-83
2021/09/22 12:56:28;;;;;;;;;;;;;;;16.68;44.20;101459.11;1687637;84;20593;-76
2021/09/22 12:58:56;;;;;;;;;;;;;;;16.68;44.65;101459.95;1695562;83;20128;-78
2021/09/22 13:01:30;;;;;;;;;;;;;;;16.62;44.17;101449.11;1694736;84;21149;-78